createdAt,value
2023-04-28T00:01:30.535Z,17.14
2023-04-28T00:04:02.940Z,17.14
2023-04-28T00:06:35.431Z,17.13
2023-04-28T00:09:11.263Z,17.13
2023-04-28T00:11:47.006Z,17.12
2023-04-28T00:14:19.428Z,17.11
2023-04-28T00:16:51.746Z,17.11
2023-04-28T00:19:25.748Z,17.10
2023-04-28T00:21:57.988Z,17.11
2023-04-28T00:24:30.541Z,17.09
2023-04-28T00:27:03.314Z,17.08
2023-04-28T00:29:35.481Z,17.08
2023-04-28T00:32:07.936Z,17.08
2023-04-28T00:34:44.539Z,17.08
2023-04-28T00:37:16.711Z,17.06
2023-04-28T00:39:54.384Z,17.07
2023-04-28T00:42:27.663Z,17.05
2023-04-28T00:45:05.753Z,17.06
2023-04-28T00:47:38.316Z,17.05
2023-04-28T00:50:10.700Z,17.04
2023-04-28T00:52:43.430Z,17.04
2023-04-28T00:55:16.431Z,17.04
2023-04-28T00:57:48.894Z,17.04
2023-04-28T01:00:22.188Z,17.03
2023-04-28T01:02:55.444Z,17.03
2023-04-28T01:05:28.467Z,17.02
2023-04-28T01:08:00.700Z,17.01
2023-04-28T01:10:33.008Z,17.01
2023-04-28T01:13:12.556Z,17.00
2023-04-28T01:15:45.023Z,17.00
2023-04-28T01:18:17.536Z,16.99
2023-04-28T01:20:49.798Z,16.99
2023-04-28T01:23:23.776Z,16.99
2023-04-28T01:25:56.601Z,16.98
2023-04-28T01:28:28.829Z,16.98
2023-04-28T01:31:00.953Z,16.97
2023-04-28T01:33:33.100Z,16.98
2023-04-28T01:36:05.443Z,16.95
2023-04-28T01:38:37.699Z,16.95
2023-04-28T01:41:10.102Z,16.94
2023-04-28T01:43:43.938Z,16.94
2023-04-28T01:46:16.310Z,16.94
2023-04-28T01:48:48.804Z,16.94
2023-04-28T01:51:21.110Z,16.93
2023-04-28T01:53:53.374Z,16.93
2023-04-28T01:56:25.543Z,16.92
2023-04-28T01:59:00.080Z,16.92
2023-04-28T02:01:32.470Z,16.92
2023-04-28T02:04:04.835Z,16.90
2023-04-28T02:06:40.317Z,16.90
2023-04-28T02:09:13.877Z,16.89
2023-04-28T02:11:45.957Z,16.89
2023-04-28T02:14:18.736Z,16.89
2023-04-28T02:16:51.074Z,16.89
2023-04-28T02:19:23.375Z,16.88
2023-04-28T02:21:55.527Z,16.87
2023-04-28T02:24:27.786Z,16.87
2023-04-28T02:27:01.100Z,16.87
2023-04-28T02:29:33.369Z,16.87
2023-04-28T02:32:05.622Z,16.86
2023-04-28T02:34:37.778Z,16.85
2023-04-28T02:37:10.263Z,16.83
2023-04-28T02:39:42.529Z,16.84
2023-04-28T02:42:14.835Z,16.84
2023-04-28T02:44:47.123Z,16.83
2023-04-28T02:47:19.364Z,16.83
2023-04-28T02:49:51.666Z,16.83
2023-04-28T02:52:23.775Z,16.82
2023-04-28T02:54:57.643Z,16.82
2023-04-28T02:57:30.526Z,16.82
2023-04-28T03:00:05.581Z,16.81
2023-04-28T03:02:46.678Z,16.80
2023-04-28T03:05:18.892Z,16.80
2023-04-28T03:07:51.330Z,16.79
2023-04-28T03:10:23.905Z,16.78
2023-04-28T03:12:56.085Z,16.78
2023-04-28T03:15:28.233Z,16.77
2023-04-28T03:18:00.719Z,16.77
2023-04-28T03:20:33.014Z,16.77
2023-04-28T03:23:06.168Z,16.77
2023-04-28T03:25:38.395Z,16.76
2023-04-28T03:28:11.100Z,16.76
2023-04-28T03:30:43.274Z,16.75
2023-04-28T03:33:15.468Z,16.75
2023-04-28T03:35:47.868Z,16.75
2023-04-28T03:38:20.487Z,16.73
2023-04-28T03:40:54.532Z,16.73
2023-04-28T03:43:58.944Z,16.73
2023-04-28T03:46:36.650Z,16.73
2023-04-28T03:49:09.043Z,16.72
2023-04-28T03:51:41.213Z,16.72
2023-04-28T03:54:13.767Z,16.72
2023-04-28T03:56:46.813Z,16.72
2023-04-28T03:59:18.881Z,16.70
2023-04-28T04:01:51.078Z,16.71
2023-04-28T04:04:23.683Z,16.69
2023-04-28T04:06:56.504Z,16.70
2023-04-28T04:09:29.056Z,16.69
2023-04-28T04:12:01.373Z,16.68
2023-04-28T04:14:33.761Z,16.68
2023-04-28T04:17:06.131Z,16.68
2023-04-28T04:19:38.353Z,16.68
2023-04-28T04:22:10.581Z,16.67
2023-04-28T04:24:42.784Z,16.67
2023-04-28T04:27:14.982Z,16.66
2023-04-28T04:29:47.170Z,16.66
2023-04-28T04:32:20.653Z,16.66
2023-04-28T04:34:53.220Z,16.66
2023-04-28T04:37:25.465Z,16.65
2023-04-28T04:40:03.608Z,16.65
2023-04-28T04:42:42.172Z,16.63
2023-04-28T04:45:18.853Z,16.64
2023-04-28T04:47:52.527Z,16.63
2023-04-28T04:50:25.241Z,16.63
2023-04-28T04:52:58.391Z,16.63
2023-04-28T04:55:31.229Z,16.62
2023-04-28T04:58:03.565Z,16.62
2023-04-28T05:00:51.804Z,16.62
2023-04-28T05:03:25.763Z,16.61
2023-04-28T05:05:58.563Z,16.60
2023-04-28T05:08:38.698Z,16.61
2023-04-28T05:11:11.943Z,16.61
2023-04-28T05:13:45.593Z,16.60
2023-04-28T05:16:18.524Z,16.61
2023-04-28T05:19:21.033Z,16.59
2023-04-28T05:21:54.911Z,16.59
2023-04-28T05:24:27.918Z,16.58
2023-04-28T05:27:01.881Z,16.57
2023-04-28T05:29:34.501Z,16.58
2023-04-28T05:32:07.712Z,16.58
2023-04-28T05:34:39.955Z,16.59
2023-04-28T05:37:12.131Z,16.57
2023-04-28T05:39:46.313Z,16.59
2023-04-28T05:42:18.510Z,16.58
2023-04-28T05:44:50.909Z,16.59
2023-04-28T05:47:23.317Z,16.60
2023-04-28T05:49:56.439Z,16.61
2023-04-28T05:52:28.519Z,16.62
2023-04-28T05:55:00.799Z,16.63
2023-04-28T05:57:41.737Z,16.64
2023-04-28T06:00:22.624Z,16.67
2023-04-28T06:02:58.262Z,16.70
2023-04-28T06:05:31.117Z,16.71
2023-04-28T06:08:03.648Z,16.75
2023-04-28T06:10:37.154Z,16.77
2023-04-28T06:13:11.011Z,16.81
2023-04-28T06:15:46.625Z,16.83
2023-04-28T06:18:19.347Z,16.86
2023-04-28T06:20:52.268Z,16.89
2023-04-28T06:23:26.040Z,16.92
2023-04-28T06:26:00.577Z,16.95
2023-04-28T06:28:32.698Z,16.96
2023-04-28T06:31:04.960Z,17.00
2023-04-28T06:33:37.116Z,17.01
2023-04-28T06:36:09.567Z,17.03
2023-04-28T06:38:43.294Z,17.06
2023-04-28T06:41:15.531Z,17.08
2023-04-28T06:43:51.385Z,17.09
2023-04-28T06:46:29.704Z,17.11
2023-04-28T06:49:02.278Z,17.14
2023-04-28T06:51:34.642Z,17.17
2023-04-28T06:54:07.931Z,17.21
2023-04-28T06:56:40.029Z,17.23
2023-04-28T06:59:12.221Z,17.24
2023-04-28T07:01:44.504Z,17.27
2023-04-28T07:04:17.070Z,17.29
2023-04-28T07:06:49.516Z,17.31
2023-04-28T07:09:21.774Z,17.33
2023-04-28T07:11:53.923Z,17.35
2023-04-28T07:14:26.076Z,17.37
2023-04-28T07:16:59.493Z,17.38
2023-04-28T07:19:31.891Z,17.40
2023-04-28T07:22:04.053Z,17.41
2023-04-28T07:24:36.242Z,17.42
2023-04-28T07:27:08.697Z,17.43
2023-04-28T07:29:41.143Z,17.44
2023-04-28T07:32:13.983Z,17.45
2023-04-28T07:34:46.796Z,17.45
2023-04-28T07:37:18.892Z,17.46
2023-04-28T07:39:51.240Z,17.47
2023-04-28T07:42:23.467Z,17.48
2023-04-28T07:44:56.450Z,17.48
2023-04-28T07:47:29.397Z,17.50
2023-04-28T07:50:05.134Z,17.51
2023-04-28T07:52:37.422Z,17.52
2023-04-28T07:55:09.576Z,17.52
2023-04-28T07:57:42.494Z,17.53
2023-04-28T08:00:14.926Z,17.54
2023-04-28T08:02:47.174Z,17.55
2023-04-28T08:05:19.805Z,17.55
2023-04-28T08:07:52.183Z,17.56
2023-04-28T08:10:26.600Z,17.57
2023-04-28T08:12:59.340Z,17.58
2023-04-28T08:15:34.415Z,17.59
2023-04-28T08:18:07.396Z,17.60
2023-04-28T08:20:39.549Z,17.61
2023-04-28T08:23:11.780Z,17.61
2023-04-28T08:25:44.113Z,17.62
2023-04-28T08:28:16.176Z,17.62
2023-04-28T08:30:48.548Z,17.62
2023-04-28T08:33:20.667Z,17.62
2023-04-28T08:35:52.978Z,17.63
2023-04-28T08:38:25.616Z,17.63
2023-04-28T08:40:57.688Z,17.63
2023-04-28T08:43:30.252Z,17.64
2023-04-28T08:46:06.427Z,17.66
2023-04-28T08:48:43.543Z,17.66
2023-04-28T08:51:28.883Z,17.67
2023-04-28T08:56:37.993Z,17.71
2023-04-28T08:59:10.219Z,17.71
2023-04-28T09:01:42.526Z,17.73
2023-04-28T09:04:16.599Z,17.75
2023-04-28T09:06:49.211Z,17.76
2023-04-28T09:09:25.366Z,17.77
2023-04-28T09:11:59.500Z,17.80
2023-04-28T09:14:33.094Z,17.79
2023-04-28T09:17:16.814Z,17.82
2023-04-28T09:19:49.336Z,17.83
2023-04-28T09:22:27.941Z,17.85
2023-04-28T09:25:10.632Z,17.86
2023-04-28T09:27:42.854Z,17.88
2023-04-28T09:30:15.434Z,17.87
2023-04-28T09:33:04.131Z,17.87
2023-04-28T09:35:40.688Z,17.86
2023-04-28T09:38:12.973Z,17.86
2023-04-28T09:40:51.582Z,17.85
2023-04-28T09:43:24.870Z,17.84
2023-04-28T09:45:58.751Z,17.83
2023-04-28T09:48:35.569Z,17.83
2023-04-28T09:51:09.535Z,17.82
2023-04-28T09:53:42.716Z,17.82
2023-04-28T09:56:14.983Z,17.83
2023-04-28T09:58:48.245Z,17.84
2023-04-28T10:01:20.496Z,17.85
2023-04-28T10:03:54.643Z,17.86
2023-04-28T10:06:28.958Z,17.87
2023-04-28T10:09:01.841Z,17.88
2023-04-28T10:11:34.796Z,17.88
2023-04-28T10:14:07.098Z,17.89
2023-04-28T10:16:39.276Z,17.90
2023-04-28T10:19:12.273Z,17.91
2023-04-28T10:21:49.381Z,17.92
2023-04-28T10:24:27.012Z,17.92
2023-04-28T10:26:59.255Z,17.93
2023-04-28T10:29:33.178Z,17.93
2023-04-28T10:32:20.478Z,17.92
2023-04-28T10:34:52.837Z,17.91
2023-04-28T10:37:44.916Z,17.91
2023-04-28T10:40:36.246Z,17.91
2023-04-28T10:43:09.313Z,17.91
2023-04-28T10:46:02.361Z,17.90
2023-04-28T10:48:34.988Z,17.91
2023-04-28T10:51:08.056Z,17.90
2023-04-28T10:53:47.166Z,17.90
2023-04-28T10:56:19.881Z,17.90
2023-04-28T10:58:52.737Z,17.91
2023-04-28T11:01:25.736Z,17.93
2023-04-28T11:04:04.335Z,17.95
2023-04-28T11:06:39.703Z,17.96
2023-04-28T11:09:16.017Z,17.96
2023-04-28T11:12:00.603Z,17.96
2023-04-28T11:14:34.253Z,17.96
2023-04-28T11:17:13.250Z,17.95
2023-04-28T11:19:46.220Z,17.95
2023-04-28T11:22:18.606Z,17.92
2023-04-28T11:25:00.841Z,17.92
2023-04-28T11:27:33.754Z,17.91
2023-04-28T11:30:20.029Z,17.89
2023-04-28T11:32:52.810Z,17.87
2023-04-28T11:35:24.946Z,17.86
2023-04-28T11:38:04.374Z,17.86
2023-04-28T11:40:36.509Z,17.86
2023-04-28T11:43:10.984Z,17.87
2023-04-28T11:45:46.202Z,17.89
2023-04-28T11:48:22.444Z,17.91
2023-04-28T11:50:54.886Z,17.93
2023-04-28T11:53:42.404Z,17.95
2023-04-28T11:56:14.622Z,17.99
2023-04-28T11:59:00.720Z,18.01
2023-04-28T12:01:34.527Z,18.04
2023-04-28T12:04:06.980Z,18.06
2023-04-28T12:06:39.893Z,18.08
2023-04-28T12:09:21.367Z,18.08
2023-04-28T12:11:57.794Z,18.08
2023-04-28T12:14:30.440Z,18.07
2023-04-28T12:17:02.686Z,18.06
2023-04-28T12:19:44.422Z,18.06
2023-04-28T12:22:17.792Z,18.06
2023-04-28T12:25:06.996Z,18.06
2023-04-28T12:27:40.618Z,18.06
2023-04-28T12:30:23.259Z,18.04
2023-04-28T12:32:56.176Z,18.03
2023-04-28T12:35:29.109Z,18.02
2023-04-28T12:38:01.293Z,18.03
2023-04-28T12:40:33.493Z,18.03
2023-04-28T12:43:05.756Z,18.06
2023-04-28T12:45:39.000Z,18.09
2023-04-28T12:48:11.415Z,18.13
2023-04-28T12:50:43.566Z,18.16
2023-04-28T12:53:15.771Z,18.18
2023-04-28T12:55:47.861Z,18.19
2023-04-28T12:58:19.922Z,18.20
2023-04-28T13:00:52.080Z,18.22
2023-04-28T13:03:24.291Z,18.24
2023-04-28T13:05:56.415Z,18.25
2023-04-28T13:08:30.960Z,18.23
2023-04-28T13:11:12.844Z,18.22
2023-04-28T13:13:54.072Z,18.22
2023-04-28T13:16:28.913Z,18.22
2023-04-28T13:19:03.867Z,18.24
2023-04-28T13:21:38.949Z,18.26
2023-04-28T13:24:11.563Z,18.28
2023-04-28T13:26:45.122Z,18.31
2023-04-28T13:29:18.298Z,18.32
2023-04-28T13:31:51.108Z,18.35
2023-04-28T13:34:23.329Z,18.39
2023-04-28T13:36:55.634Z,18.42
2023-04-28T13:39:28.391Z,18.46
2023-04-28T13:42:01.742Z,18.47
2023-04-28T13:44:33.927Z,18.50
2023-04-28T13:47:09.794Z,18.58
2023-04-28T13:49:41.870Z,18.66
2023-04-28T13:52:14.227Z,18.69
2023-04-28T13:54:47.051Z,18.74
2023-04-28T13:57:19.923Z,18.89
2023-04-28T13:59:52.368Z,19.07
2023-04-28T14:02:24.849Z,19.21
2023-04-28T14:04:57.046Z,19.26
2023-04-28T14:07:29.238Z,19.27
2023-04-28T14:10:01.457Z,19.24
2023-04-28T14:12:33.655Z,19.19
2023-04-28T14:15:06.277Z,19.16
2023-04-28T14:17:38.782Z,19.14
2023-04-28T14:20:11.883Z,19.15
2023-04-28T14:22:44.055Z,19.16
2023-04-28T14:25:17.125Z,19.17
2023-04-28T14:27:49.713Z,19.16
2023-04-28T14:30:22.511Z,19.15
2023-04-28T14:32:56.548Z,19.15
2023-04-28T14:35:30.336Z,19.14
2023-04-28T14:38:04.600Z,19.15
2023-04-28T14:40:36.824Z,19.14
2023-04-28T14:43:09.094Z,19.12
2023-04-28T14:45:41.497Z,19.08
2023-04-28T14:48:14.466Z,19.02
2023-04-28T14:50:46.907Z,18.97
2023-04-28T14:53:19.083Z,18.92
2023-04-28T14:55:51.154Z,18.86
2023-04-28T14:58:23.377Z,18.79
2023-04-28T15:00:55.685Z,18.77
2023-04-28T15:03:27.948Z,18.73
2023-04-28T15:06:00.587Z,18.71
2023-04-28T15:08:33.416Z,18.70
2023-04-28T15:11:05.602Z,18.71
2023-04-28T15:13:39.477Z,18.71
2023-04-28T15:16:12.802Z,18.72
2023-04-28T15:18:46.136Z,18.71
2023-04-28T15:21:18.374Z,18.69
2023-04-28T15:23:50.513Z,18.67
2023-04-28T15:26:23.715Z,18.65
2023-04-28T15:28:56.133Z,18.64
2023-04-28T15:31:28.498Z,18.60
2023-04-28T15:34:00.830Z,18.57
2023-04-28T15:36:36.743Z,18.54
2023-04-28T15:39:10.415Z,18.52
2023-04-28T15:41:42.635Z,18.51
2023-04-28T15:44:17.131Z,18.50
2023-04-28T15:46:49.862Z,18.63
2023-04-28T15:49:22.730Z,18.93
2023-04-28T15:51:55.096Z,19.16
2023-04-28T15:54:29.175Z,19.26
2023-04-28T15:57:01.801Z,19.28
2023-04-28T15:59:35.563Z,19.25
2023-04-28T16:02:08.246Z,19.21
2023-04-28T16:04:40.626Z,19.15
2023-04-28T16:07:12.937Z,19.08
2023-04-28T16:09:45.152Z,19.02
2023-04-28T16:12:18.854Z,18.97
2023-04-28T16:14:51.329Z,18.92
2023-04-28T16:17:23.815Z,18.87
2023-04-28T16:19:56.166Z,18.82
2023-04-28T16:22:28.446Z,18.78
2023-04-28T16:25:01.445Z,18.73
2023-04-28T16:27:34.027Z,18.69
2023-04-28T16:30:07.968Z,18.67
2023-04-28T16:32:41.030Z,18.64
2023-04-28T16:35:15.227Z,18.62
2023-04-28T16:37:47.911Z,18.60
2023-04-28T16:40:20.269Z,18.59
2023-04-28T16:42:52.452Z,18.58
2023-04-28T16:45:24.647Z,18.56
2023-04-28T16:47:56.822Z,18.54
2023-04-28T16:50:29.101Z,18.52
2023-04-28T16:53:01.348Z,18.50
2023-04-28T16:55:34.886Z,18.48
2023-04-28T16:58:07.911Z,18.46
2023-04-28T17:00:40.242Z,18.43
2023-04-28T17:03:12.505Z,18.42
2023-04-28T17:05:44.710Z,18.41
2023-04-28T17:08:16.916Z,18.41
2023-04-28T17:10:49.787Z,18.39
2023-04-28T17:13:22.076Z,18.37
2023-04-28T17:16:00.455Z,18.36
2023-04-28T17:18:32.974Z,18.35
2023-04-28T17:21:06.090Z,18.34
2023-04-28T17:23:39.013Z,18.33
2023-04-28T17:26:12.562Z,18.32
2023-04-28T17:28:44.727Z,18.32
2023-04-28T17:31:17.115Z,18.31
2023-04-28T17:33:53.089Z,18.30
2023-04-28T17:36:28.934Z,18.30
2023-04-28T17:39:01.399Z,18.30
2023-04-28T17:41:33.597Z,18.30
2023-04-28T17:44:06.789Z,18.31
2023-04-28T17:46:39.484Z,18.32
2023-04-28T17:49:11.818Z,18.32
2023-04-28T17:51:44.938Z,18.32
2023-04-28T17:54:17.437Z,18.31
2023-04-28T17:56:50.700Z,18.30
2023-04-28T17:59:22.863Z,18.28
2023-04-28T18:01:56.752Z,18.27
2023-04-28T18:04:29.709Z,18.27
2023-04-28T18:07:02.054Z,18.27
2023-04-28T18:09:34.205Z,18.27
2023-04-28T18:12:07.067Z,18.28
2023-04-28T18:14:41.161Z,18.28
2023-04-28T18:17:13.291Z,18.29
2023-04-28T18:19:45.366Z,18.31
2023-04-28T18:22:18.370Z,18.34
2023-04-28T18:24:50.804Z,18.37
2023-04-28T18:27:23.202Z,18.40
2023-04-28T18:29:56.068Z,18.41
2023-04-28T18:32:31.358Z,18.44
2023-04-28T18:35:03.577Z,18.47
2023-04-28T18:37:37.129Z,18.47
2023-04-28T18:40:09.333Z,18.49
2023-04-28T18:42:41.516Z,18.50
2023-04-28T18:45:14.960Z,18.51
2023-04-28T18:47:48.114Z,18.51
2023-04-28T18:50:20.998Z,18.52
2023-04-28T18:52:53.238Z,18.51
2023-04-28T18:55:25.508Z,18.51
2023-04-28T18:57:57.751Z,18.52
2023-04-28T19:00:30.498Z,18.52
2023-04-28T19:03:02.692Z,18.52
2023-04-28T19:05:35.464Z,18.51
2023-04-28T19:08:10.204Z,18.51
2023-04-28T19:10:43.983Z,18.51
2023-04-28T19:13:16.267Z,18.50
2023-04-28T19:15:51.971Z,18.50
2023-04-28T19:18:24.803Z,18.50
2023-04-28T19:21:00.728Z,18.49
2023-04-28T19:23:32.998Z,18.49
2023-04-28T19:26:05.240Z,18.48
2023-04-28T19:28:37.412Z,18.47
2023-04-28T19:31:09.673Z,18.46
2023-04-28T19:33:41.885Z,18.46
2023-04-28T19:36:14.083Z,18.45
2023-04-28T19:38:46.647Z,18.45
2023-04-28T19:41:19.237Z,18.44
2023-04-28T19:43:51.401Z,18.42
2023-04-28T19:46:23.612Z,18.41
2023-04-28T19:48:55.871Z,18.42
2023-04-28T19:51:28.035Z,18.41
2023-04-28T19:54:00.214Z,18.40
2023-04-28T19:56:32.957Z,18.38
2023-04-28T19:59:05.901Z,18.39
2023-04-28T20:01:42.603Z,18.37
2023-04-28T20:04:15.163Z,18.36
2023-04-28T20:06:47.848Z,18.36
2023-04-28T20:09:21.080Z,18.34
2023-04-28T20:11:53.288Z,18.34
2023-04-28T20:14:25.843Z,18.33
2023-04-28T20:16:58.456Z,18.32
2023-04-28T20:19:30.818Z,18.32
2023-04-28T20:22:07.440Z,18.31
2023-04-28T20:24:41.616Z,18.30
2023-04-28T20:27:13.903Z,18.31
2023-04-28T20:29:46.414Z,18.30
2023-04-28T20:32:18.942Z,18.29
2023-04-28T20:34:51.203Z,18.29
2023-04-28T20:37:23.854Z,18.29
2023-04-28T20:39:56.339Z,18.28
2023-04-28T20:42:28.832Z,18.29
2023-04-28T20:45:01.019Z,18.29
2023-04-28T20:47:34.595Z,18.29
2023-04-28T20:50:07.635Z,18.28
2023-04-28T20:52:39.899Z,18.29
2023-04-28T20:55:12.673Z,18.29
2023-04-28T20:57:44.832Z,18.29
2023-04-28T21:00:17.352Z,18.29
2023-04-28T21:02:50.798Z,18.29
2023-04-28T21:05:23.862Z,18.29
2023-04-28T21:07:56.100Z,18.30
2023-04-28T21:10:28.243Z,18.29
2023-04-28T21:13:00.550Z,18.29
2023-04-28T21:15:40.360Z,18.28
2023-04-28T21:18:12.605Z,18.28
2023-04-28T21:20:44.832Z,18.28
2023-04-28T21:23:17.191Z,18.27
2023-04-28T21:25:49.264Z,18.26
2023-04-28T21:28:21.500Z,18.26
2023-04-28T21:30:53.667Z,18.26
2023-04-28T21:33:25.674Z,18.26
2023-04-28T21:35:58.210Z,18.24
2023-04-28T21:38:30.319Z,18.25
2023-04-28T21:41:02.595Z,18.24
2023-04-28T21:43:34.875Z,18.24
2023-04-28T21:46:07.098Z,18.24
2023-04-28T21:48:39.712Z,18.24
2023-04-28T21:51:12.062Z,18.23
2023-04-28T21:53:44.639Z,18.23
2023-04-28T21:56:17.744Z,18.23
2023-04-28T21:58:51.220Z,18.22
2023-04-28T22:01:23.613Z,18.22
2023-04-28T22:03:56.238Z,18.21
2023-04-28T22:06:28.665Z,18.20
2023-04-28T22:09:04.152Z,18.21
2023-04-28T22:11:36.492Z,18.20
2023-04-28T22:14:12.012Z,18.20
2023-04-28T22:16:48.050Z,18.19
2023-04-28T22:19:21.562Z,18.18
2023-04-28T22:21:53.916Z,18.18
2023-04-28T22:24:26.289Z,18.17
2023-04-28T22:26:58.620Z,18.16
2023-04-28T22:29:31.139Z,18.16
2023-04-28T22:32:03.464Z,18.16
2023-04-28T22:34:36.461Z,18.15
2023-04-28T22:37:08.554Z,18.14
2023-04-28T22:39:40.937Z,18.13
2023-04-28T22:42:14.146Z,18.12
2023-04-28T22:44:47.196Z,18.11
2023-04-28T22:47:19.264Z,18.11
2023-04-28T22:49:51.565Z,18.09
2023-04-28T22:52:24.209Z,18.08
2023-04-28T22:54:56.383Z,18.06
2023-04-28T22:57:28.753Z,18.05
2023-04-28T23:00:01.071Z,18.04
2023-04-28T23:02:33.583Z,18.03
2023-04-28T23:05:06.115Z,18.02
2023-04-28T23:07:38.259Z,18.01
2023-04-28T23:10:11.526Z,18.01
2023-04-28T23:12:46.364Z,18.00
2023-04-28T23:15:18.633Z,17.99
2023-04-28T23:17:50.731Z,17.98
2023-04-28T23:20:22.829Z,17.98
2023-04-28T23:22:56.788Z,17.96
2023-04-28T23:25:29.039Z,17.96
2023-04-28T23:28:01.212Z,17.94
2023-04-28T23:30:33.344Z,17.94
2023-04-28T23:33:05.523Z,17.93
2023-04-28T23:35:38.061Z,17.93
2023-04-28T23:38:10.320Z,17.92
2023-04-28T23:40:42.424Z,17.92
2023-04-28T23:43:14.731Z,17.91
2023-04-28T23:45:47.123Z,17.89
2023-04-28T23:48:19.262Z,17.89
2023-04-28T23:50:51.446Z,17.88
2023-04-28T23:53:23.562Z,17.86
2023-04-28T23:55:55.814Z,17.86
2023-04-28T23:58:28.200Z,17.86
